createdAt,value
2023-04-09T00:00:06.592Z,20.500
2023-04-09T00:01:06.752Z,19.900
2023-04-09T00:02:07.137Z,21.300
2023-04-09T00:03:06.619Z,22.800
2023-04-09T00:04:07.709Z,20.700
2023-04-09T00:06:06.653Z,34.900
2023-04-09T00:07:06.788Z,25.100
2023-04-09T00:08:06.955Z,22.000
2023-04-09T00:09:07.735Z,18.400
2023-04-09T00:10:07.071Z,18.700
2023-04-09T00:11:07.239Z,20.500
2023-04-09T00:12:06.339Z,21.700
2023-04-09T00:13:06.492Z,19.100
2023-04-09T00:14:11.568Z,20.400
2023-04-09T00:16:07.112Z,20.400
2023-04-09T00:17:07.399Z,29.600
2023-04-09T00:18:06.611Z,19.900
2023-04-09T00:19:07.467Z,19.900
2023-04-09T00:20:06.666Z,21.000
2023-04-09T00:21:06.872Z,20.800
2023-04-09T00:22:07.064Z,25.100
2023-04-09T00:23:08.272Z,22.100
2023-04-09T00:24:06.416Z,21.900
2023-04-09T00:25:06.620Z,21.400
2023-04-09T00:26:06.865Z,20.300
2023-04-09T00:27:07.016Z,21.200
2023-04-09T00:28:07.288Z,20.200
2023-04-09T00:29:06.944Z,20.300
2023-04-09T00:30:07.367Z,21.300
2023-04-09T00:31:06.536Z,21.000
2023-04-09T00:32:06.940Z,19.600
2023-04-09T00:33:07.420Z,20.900
2023-04-09T00:34:06.650Z,21.900
2023-04-09T00:35:06.945Z,21.700
2023-04-09T00:36:07.347Z,21.300
2023-04-09T00:37:06.463Z,21.600
2023-04-09T00:38:06.629Z,20.900
2023-04-09T00:39:07.515Z,20.800
2023-04-09T00:40:06.665Z,20.700
2023-04-09T00:41:07.108Z,20.300
2023-04-09T00:42:07.257Z,21.100
2023-04-09T00:43:06.419Z,21.500
2023-04-09T00:44:06.555Z,22.700
2023-04-09T00:45:06.828Z,20.900
2023-04-09T00:46:07.254Z,22.300
2023-04-09T00:48:06.705Z,20.400
2023-04-09T00:49:07.321Z,20.600
2023-04-09T00:50:06.471Z,23.400
2023-04-09T00:51:06.910Z,22.900
2023-04-09T00:52:07.104Z,22.600
2023-04-09T00:53:07.362Z,21.400
2023-04-09T00:54:06.479Z,22.100
2023-04-09T00:55:06.784Z,22.100
2023-04-09T00:56:07.026Z,23.200
2023-04-09T00:57:07.313Z,20.600
2023-04-09T00:59:07.268Z,20.700
2023-04-09T01:00:06.420Z,19.500
2023-04-09T01:01:06.828Z,20.100
2023-04-09T01:02:07.633Z,19.300
2023-04-09T01:03:07.526Z,20.200
2023-04-09T01:04:06.861Z,21.700
2023-04-09T01:05:07.032Z,20.500
2023-04-09T01:06:07.468Z,21.500
2023-04-09T01:07:06.678Z,21.200
2023-04-09T01:08:06.862Z,20.500
2023-04-09T01:09:08.039Z,20.300
2023-04-09T01:10:07.183Z,21.500
2023-04-09T01:11:06.280Z,31.000
2023-04-09T01:12:06.491Z,22.700
2023-04-09T01:13:06.683Z,20.300
2023-04-09T01:14:06.885Z,19.300
2023-04-09T01:15:07.696Z,20.500
2023-04-09T01:16:07.335Z,22.000
2023-04-09T01:17:07.313Z,37.600
2023-04-09T01:18:06.806Z,27.600
2023-04-09T01:19:07.855Z,38.900
2023-04-09T01:20:07.052Z,30.300
2023-04-09T01:21:07.220Z,23.000
2023-04-09T01:22:06.423Z,22.800
2023-04-09T01:23:06.720Z,24.800
2023-04-09T01:24:06.877Z,20.800
2023-04-09T01:25:07.033Z,25.700
2023-04-09T01:26:07.218Z,28.600
2023-04-09T01:28:06.716Z,36.500
2023-04-09T01:29:07.470Z,31.000
2023-04-09T01:30:06.574Z,32.900
2023-04-09T01:31:06.967Z,33.700
2023-04-09T01:32:06.239Z,27.800
2023-04-09T01:33:06.558Z,31.200
2023-04-09T01:34:06.753Z,30.700
2023-04-09T01:35:06.970Z,32.200
2023-04-09T01:36:07.477Z,29.300
2023-04-09T01:37:06.679Z,25.600
2023-04-09T01:38:06.870Z,25.800
2023-04-09T01:39:07.676Z,24.500
2023-04-09T01:40:06.832Z,28.300
2023-04-09T01:41:07.038Z,24.000
2023-04-09T01:42:07.189Z,32.300
2023-04-09T01:43:06.342Z,39.900
2023-04-09T01:44:06.642Z,30.700
2023-04-09T01:45:06.798Z,27.900
2023-04-09T01:46:07.092Z,44.700
2023-04-09T01:47:06.344Z,47.700
2023-04-09T01:48:06.819Z,42.600
2023-04-09T01:49:07.588Z,55.100
2023-04-09T01:50:06.712Z,50.200
2023-04-09T01:51:06.877Z,64.700
2023-04-09T01:52:07.029Z,61.800
2023-04-09T01:53:07.208Z,70.600
2023-04-09T01:54:06.343Z,79.900
2023-04-09T01:55:06.652Z,53.700
2023-04-09T01:57:07.096Z,59.600
2023-04-09T01:58:07.376Z,67.600
2023-04-09T01:59:07.052Z,49.700
2023-04-09T02:00:06.665Z,50.700
2023-04-09T02:01:07.132Z,58.000
2023-04-09T02:02:07.014Z,58.000
2023-04-09T02:03:06.949Z,61.900
2023-04-09T02:04:06.595Z,39.700
2023-04-09T02:05:06.863Z,43.600
2023-04-09T02:06:07.055Z,25.000
2023-04-09T02:07:07.199Z,21.100
2023-04-09T02:08:06.402Z,22.800
2023-04-09T02:09:07.234Z,23.400
2023-04-09T02:10:06.524Z,23.900
2023-04-09T02:11:06.690Z,22.900
2023-04-09T02:12:06.913Z,23.400
2023-04-09T02:13:07.150Z,24.000
2023-04-09T02:14:06.232Z,23.000
2023-04-09T02:15:06.463Z,24.700
2023-04-09T02:16:06.858Z,23.400
2023-04-09T02:17:07.202Z,25.000
2023-04-09T02:18:06.720Z,23.300
2023-04-09T02:19:07.643Z,24.100
2023-04-09T02:20:06.750Z,26.500
2023-04-09T02:21:06.965Z,24.200
2023-04-09T02:22:07.154Z,23.900
2023-04-09T02:23:06.324Z,24.300
2023-04-09T02:24:07.026Z,24.000
2023-04-09T02:25:07.432Z,25.700
2023-04-09T02:26:06.501Z,24.200
2023-04-09T02:27:06.738Z,23.500
2023-04-09T02:28:07.136Z,22.500
2023-04-09T02:29:08.004Z,21.500
2023-04-09T02:30:07.214Z,23.300
2023-04-09T02:31:06.321Z,23.900
2023-04-09T02:32:06.642Z,23.600
2023-04-09T02:33:06.956Z,22.000
2023-04-09T02:34:07.159Z,22.700
2023-04-09T02:35:06.335Z,22.800
2023-04-09T02:36:06.872Z,23.400
2023-04-09T02:37:07.120Z,24.600
2023-04-09T02:38:06.328Z,23.500
2023-04-09T02:39:06.800Z,23.100
2023-04-09T02:40:07.104Z,22.700
2023-04-09T02:41:07.311Z,21.900
2023-04-09T02:42:06.519Z,22.700
2023-04-09T02:43:06.782Z,21.000
2023-04-09T02:44:07.264Z,23.000
2023-04-09T02:45:06.391Z,21.500
2023-04-09T02:46:06.715Z,23.300
2023-04-09T02:47:07.066Z,22.100
2023-04-09T02:48:07.280Z,22.800
2023-04-09T02:49:07.004Z,22.200
2023-04-09T02:50:07.254Z,21.200
2023-04-09T02:51:06.409Z,22.600
2023-04-09T02:52:06.540Z,22.600
2023-04-09T02:53:06.793Z,23.000
2023-04-09T02:54:06.954Z,22.100
2023-04-09T02:55:07.156Z,23.200
2023-04-09T02:56:06.268Z,23.200
2023-04-09T02:57:06.445Z,22.400
2023-04-09T02:58:08.196Z,22.700
2023-04-09T03:00:06.502Z,23.200
2023-04-09T03:01:06.758Z,22.600
2023-04-09T03:02:07.366Z,21.600
2023-04-09T03:03:07.113Z,21.500
2023-04-09T03:04:07.338Z,23.100
2023-04-09T03:05:06.626Z,22.900
2023-04-09T03:06:06.780Z,22.900
2023-04-09T03:07:06.909Z,21.600
2023-04-09T03:08:07.102Z,22.400
2023-04-09T03:09:08.172Z,23.500
2023-04-09T03:11:06.451Z,22.100
2023-04-09T03:12:06.732Z,22.600
2023-04-09T03:13:06.924Z,22.600
2023-04-09T03:14:07.109Z,21.700
2023-04-09T03:15:06.385Z,22.800
2023-04-09T03:16:06.645Z,22.000
2023-04-09T03:17:06.884Z,21.900
2023-04-09T03:18:08.429Z,21.400
2023-04-09T03:19:07.037Z,22.200
2023-04-09T03:20:07.160Z,20.300
2023-04-09T03:21:07.321Z,21.400
2023-04-09T03:22:06.501Z,21.500
2023-04-09T03:23:06.716Z,20.800
2023-04-09T03:24:06.923Z,22.400
2023-04-09T03:25:07.076Z,21.800
2023-04-09T03:26:07.196Z,22.000
2023-04-09T03:27:06.276Z,21.700
2023-04-09T03:28:06.472Z,21.600
2023-04-09T03:29:07.141Z,21.400
2023-04-09T03:30:06.287Z,21.500
2023-04-09T03:31:06.502Z,22.200
2023-04-09T03:33:07.259Z,23.400
2023-04-09T03:34:06.448Z,21.700
2023-04-09T03:35:06.689Z,21.500
2023-04-09T03:36:07.203Z,20.900
2023-04-09T03:37:06.662Z,22.300
2023-04-09T03:38:06.877Z,22.200
2023-04-09T03:39:07.755Z,22.100
2023-04-09T03:40:07.038Z,25.800
2023-04-09T03:41:07.242Z,23.100
2023-04-09T03:42:06.279Z,24.300
2023-04-09T03:43:06.440Z,23.100
2023-04-09T03:44:06.664Z,24.600
2023-04-09T03:45:06.832Z,23.900
2023-04-09T03:46:07.129Z,22.700
2023-04-09T03:47:06.369Z,23.700
2023-04-09T03:48:06.809Z,24.200
2023-04-09T03:49:07.636Z,24.200
2023-04-09T03:50:06.801Z,22.600
2023-04-09T03:51:06.944Z,23.000
2023-04-09T03:52:07.125Z,22.300
2023-04-09T03:53:06.281Z,23.200
2023-04-09T03:54:06.484Z,25.200
2023-04-09T03:55:06.662Z,23.000
2023-04-09T03:56:06.816Z,24.100
2023-04-09T03:57:06.986Z,23.000
2023-04-09T03:58:07.158Z,22.000
2023-04-09T03:59:06.766Z,23.000
2023-04-09T04:00:06.974Z,22.700
2023-04-09T04:01:07.189Z,22.600
2023-04-09T04:02:06.572Z,22.500
2023-04-09T04:03:08.334Z,23.200
2023-04-09T04:04:07.232Z,23.500
2023-04-09T04:05:06.769Z,21.700
2023-04-09T04:06:06.959Z,23.000
2023-04-09T04:07:07.243Z,23.700
2023-04-09T04:08:06.428Z,23.400
2023-04-09T04:09:07.226Z,24.600
2023-04-09T04:10:06.330Z,23.300
2023-04-09T04:11:06.525Z,24.900
2023-04-09T04:12:06.651Z,23.400
2023-04-09T04:13:07.148Z,22.200
2023-04-09T04:14:06.357Z,23.000
2023-04-09T04:15:06.636Z,21.800
2023-04-09T04:16:06.949Z,24.100
2023-04-09T04:17:06.328Z,22.900
2023-04-09T04:18:06.720Z,23.500
2023-04-09T04:19:07.181Z,22.800
2023-04-09T04:20:06.336Z,22.800
2023-04-09T04:21:06.459Z,24.000
2023-04-09T04:22:06.602Z,22.800
2023-04-09T04:23:06.808Z,23.300
2023-04-09T04:24:07.962Z,24.400
2023-04-09T04:26:06.528Z,23.800
2023-04-09T04:27:06.763Z,24.200
2023-04-09T04:28:06.980Z,25.300
2023-04-09T04:29:07.821Z,23.000
2023-04-09T04:30:07.013Z,23.800
2023-04-09T04:31:07.185Z,24.600
2023-04-09T04:32:06.624Z,22.500
2023-04-09T04:33:06.996Z,25.000
2023-04-09T04:34:07.197Z,25.200
2023-04-09T04:35:06.353Z,25.300
2023-04-09T04:36:06.624Z,26.000
2023-04-09T04:37:06.776Z,25.900
2023-04-09T04:38:06.951Z,26.000
2023-04-09T04:39:07.804Z,23.900
2023-04-09T04:40:07.031Z,26.500
2023-04-09T04:41:07.210Z,25.600
2023-04-09T04:42:06.384Z,25.900
2023-04-09T04:43:06.731Z,25.100
2023-04-09T04:44:06.857Z,26.300
2023-04-09T04:45:07.072Z,26.500
2023-04-09T04:46:09.605Z,25.600
2023-04-09T04:48:07.161Z,24.900
2023-04-09T04:49:06.662Z,24.400
2023-04-09T04:50:06.873Z,25.000
2023-04-09T04:51:07.068Z,24.800
2023-04-09T04:52:07.271Z,24.200
2023-04-09T04:53:06.369Z,25.400
2023-04-09T04:54:06.479Z,25.300
2023-04-09T04:55:06.612Z,24.500
2023-04-09T04:56:06.867Z,23.900
2023-04-09T04:57:07.164Z,24.700
2023-04-09T04:58:06.379Z,24.200
2023-04-09T04:59:06.918Z,23.400
2023-04-09T05:00:07.107Z,24.600
2023-04-09T05:01:06.501Z,23.900
2023-04-09T05:02:07.084Z,25.000
2023-04-09T05:03:06.758Z,24.700
2023-04-09T05:04:07.407Z,23.700
2023-04-09T05:05:06.599Z,25.100
2023-04-09T05:06:06.727Z,24.900
2023-04-09T05:07:06.979Z,25.200
2023-04-09T05:08:07.157Z,25.000
2023-04-09T05:09:06.658Z,26.000
2023-04-09T05:10:06.812Z,25.200
2023-04-09T05:11:07.093Z,24.400
2023-04-09T05:12:07.363Z,24.000
2023-04-09T05:13:06.713Z,24.700
2023-04-09T05:14:06.877Z,23.400
2023-04-09T05:15:07.084Z,22.800
2023-04-09T05:16:07.276Z,22.700
2023-04-09T05:17:06.617Z,24.100
2023-04-09T05:18:06.933Z,23.600
2023-04-09T05:19:08.080Z,23.800
2023-04-09T05:20:07.152Z,24.000
2023-04-09T05:21:06.321Z,23.500
2023-04-09T05:22:06.444Z,23.500
2023-04-09T05:23:06.632Z,22.800
2023-04-09T05:24:06.762Z,23.400
2023-04-09T05:25:06.910Z,21.400
2023-04-09T05:26:07.168Z,24.100
2023-04-09T05:27:06.323Z,23.000
2023-04-09T05:28:06.508Z,24.200
2023-04-09T05:29:07.020Z,24.000
2023-04-09T05:30:07.274Z,23.500
2023-04-09T05:31:06.528Z,23.300
2023-04-09T05:32:07.090Z,24.100
2023-04-09T05:33:07.514Z,23.100
2023-04-09T05:34:06.672Z,22.100
2023-04-09T05:35:06.835Z,23.800
2023-04-09T05:36:07.234Z,22.600
2023-04-09T05:37:06.428Z,23.200
2023-04-09T05:38:06.523Z,22.800
2023-04-09T05:39:07.050Z,23.400
2023-04-09T05:40:07.267Z,24.700
2023-04-09T05:41:06.410Z,23.900
2023-04-09T05:42:06.563Z,24.800
2023-04-09T05:43:06.676Z,24.500
2023-04-09T05:44:07.464Z,24.200
2023-04-09T05:45:06.612Z,23.700
2023-04-09T05:46:06.835Z,23.600
2023-04-09T05:47:07.116Z,23.300
2023-04-09T05:48:07.463Z,23.200
2023-04-09T05:49:07.197Z,24.700
2023-04-09T05:50:06.430Z,21.600
2023-04-09T05:51:12.963Z,22.800
2023-04-09T05:52:07.135Z,23.300
2023-04-09T05:53:06.350Z,22.500
2023-04-09T05:54:07.266Z,23.800
2023-04-09T05:58:06.955Z,22.900
2023-04-09T05:59:07.151Z,22.900
2023-04-09T06:00:06.292Z,22.100
2023-04-09T06:01:06.450Z,22.000
2023-04-09T06:02:07.011Z,23.900
2023-04-09T06:03:06.644Z,23.500
2023-04-09T06:04:09.903Z,21.600
2023-04-09T06:08:07.069Z,22.400
2023-04-09T06:09:07.212Z,22.800
2023-04-09T06:10:06.421Z,22.800
2023-04-09T06:11:06.555Z,21.800
2023-04-09T06:12:06.672Z,21.500
2023-04-09T06:13:06.920Z,22.600
2023-04-09T06:14:07.516Z,22.800
2023-04-09T06:15:06.684Z,23.500
2023-04-09T06:16:07.085Z,23.600
2023-04-09T06:17:06.312Z,23.800
2023-04-09T06:18:06.912Z,23.200
2023-04-09T06:19:06.301Z,21.800
2023-04-09T06:20:06.414Z,23.000
2023-04-09T06:21:06.654Z,22.200
2023-04-09T06:22:06.860Z,22.800
2023-04-09T06:23:07.016Z,22.000
2023-04-09T06:25:07.601Z,24.400
2023-04-09T06:26:06.915Z,22.000
2023-04-09T06:27:07.077Z,21.500
2023-04-09T06:28:07.257Z,21.300
2023-04-09T06:29:06.382Z,22.100
2023-04-09T06:30:06.612Z,21.200
2023-04-09T06:31:06.985Z,22.700
2023-04-09T06:32:07.391Z,22.900
2023-04-09T06:33:11.620Z,21.800
2023-04-09T06:36:06.554Z,22.500
2023-04-09T06:37:06.819Z,22.900
2023-04-09T06:38:07.134Z,21.900
2023-04-09T06:39:06.586Z,22.900
2023-04-09T06:40:11.692Z,22.600
2023-04-09T06:42:06.956Z,23.400
2023-04-09T06:43:07.098Z,22.000
2023-04-09T06:44:07.768Z,23.500
2023-04-09T06:45:06.926Z,23.300
2023-04-09T06:46:07.333Z,23.300
2023-04-09T06:47:06.778Z,23.400
2023-04-09T06:48:07.081Z,24.400
2023-04-09T06:49:06.370Z,22.800
2023-04-09T06:50:06.813Z,21.400
2023-04-09T06:51:07.060Z,21.800
2023-04-09T06:52:07.215Z,20.500
2023-04-09T06:53:06.573Z,22.100
2023-04-09T06:54:07.377Z,21.800
2023-04-09T06:55:06.512Z,23.300
2023-04-09T06:56:06.713Z,23.000
2023-04-09T06:57:07.020Z,22.100
2023-04-09T06:58:07.298Z,23.300
2023-04-09T06:59:06.494Z,23.600
2023-04-09T07:00:06.712Z,22.900
2023-04-09T07:01:06.997Z,23.300
2023-04-09T07:02:10.836Z,24.200
2023-04-09T07:05:07.702Z,23.500
2023-04-09T07:06:06.794Z,23.300
2023-04-09T07:07:06.957Z,24.200
2023-04-09T07:08:07.168Z,23.800
2023-04-09T07:09:07.068Z,22.200
2023-04-09T07:10:07.250Z,23.900
2023-04-09T07:11:06.424Z,23.100
2023-04-09T07:12:06.638Z,22.900
2023-04-09T07:13:06.792Z,23.800
2023-04-09T07:14:07.303Z,23.600
2023-04-09T07:15:06.535Z,21.500
2023-04-09T07:16:06.889Z,24.200
2023-04-09T07:17:07.303Z,23.800
2023-04-09T07:18:06.561Z,22.600
2023-04-09T07:19:06.803Z,23.500
2023-04-09T07:20:06.956Z,23.700
2023-04-09T07:21:07.200Z,24.800
2023-04-09T07:22:06.529Z,23.500
2023-04-09T07:23:06.980Z,23.300
2023-04-09T07:24:07.590Z,24.400
2023-04-09T07:25:06.763Z,24.100
2023-04-09T07:26:06.890Z,22.900
2023-04-09T07:27:09.216Z,23.000
2023-04-09T07:30:06.754Z,22.700
2023-04-09T07:31:07.034Z,25.300
2023-04-09T07:32:06.724Z,23.700
2023-04-09T07:33:07.447Z,24.200
2023-04-09T07:34:07.109Z,23.100
2023-04-09T07:35:06.277Z,24.500
2023-04-09T07:36:06.598Z,23.200
2023-04-09T07:37:07.252Z,25.000
2023-04-09T07:38:06.457Z,25.100
2023-04-09T07:39:07.092Z,24.600
2023-04-09T07:40:06.529Z,24.800
2023-04-09T07:41:06.731Z,26.000
2023-04-09T07:42:06.911Z,25.100
2023-04-09T07:43:07.024Z,25.400
2023-04-09T07:44:07.207Z,26.000
2023-04-09T07:45:06.353Z,24.800
2023-04-09T07:46:06.566Z,25.600
2023-04-09T07:47:07.084Z,24.800
2023-04-09T07:48:06.827Z,24.700
2023-04-09T07:49:07.704Z,25.400
2023-04-09T07:50:06.785Z,25.000
2023-04-09T07:51:07.175Z,25.400
2023-04-09T07:52:06.323Z,25.700
2023-04-09T07:53:06.468Z,25.200
2023-04-09T07:54:06.723Z,25.100
2023-04-09T07:55:06.839Z,26.400
2023-04-09T07:56:07.157Z,24.800
2023-04-09T07:57:06.303Z,25.800
2023-04-09T07:58:06.496Z,25.900
2023-04-09T07:59:06.892Z,26.500
2023-04-09T08:00:07.160Z,25.500
2023-04-09T08:01:06.411Z,23.800
2023-04-09T08:02:06.893Z,23.700
2023-04-09T08:03:07.261Z,22.200
2023-04-09T08:04:07.977Z,24.700
2023-04-09T08:05:06.514Z,23.000
2023-04-09T08:06:06.904Z,23.400
2023-04-09T08:07:07.224Z,23.300
2023-04-09T08:08:06.365Z,25.000
2023-04-09T08:09:06.875Z,26.000
2023-04-09T08:10:07.064Z,26.000
2023-04-09T08:11:07.177Z,25.100
2023-04-09T08:12:06.366Z,21.400
2023-04-09T08:13:06.574Z,19.600
2023-04-09T08:14:07.279Z,21.200
2023-04-09T08:15:06.395Z,21.900
2023-04-09T08:16:06.629Z,21.100
2023-04-09T08:17:07.119Z,23.000
2023-04-09T08:18:07.575Z,21.400
2023-04-09T08:19:07.211Z,21.900
2023-04-09T08:20:06.292Z,24.400
2023-04-09T08:21:06.450Z,24.700
2023-04-09T08:22:06.718Z,23.600
2023-04-09T08:23:07.147Z,21.200
2023-04-09T08:24:06.323Z,18.500
2023-04-09T08:25:06.502Z,19.600
2023-04-09T08:26:07.505Z,21.000
2023-04-09T08:27:06.686Z,19.700
2023-04-09T08:28:06.897Z,19.900
2023-04-09T08:29:07.388Z,19.700
2023-04-09T08:30:06.616Z,20.800
2023-04-09T08:31:06.826Z,19.300
2023-04-09T08:32:07.225Z,20.300
2023-04-09T08:33:06.594Z,22.300
2023-04-09T08:34:06.944Z,19.900
2023-04-09T08:35:07.166Z,19.300
2023-04-09T08:36:06.465Z,21.200
2023-04-09T08:37:06.724Z,21.500
2023-04-09T08:38:06.969Z,20.300
2023-04-09T08:39:07.589Z,20.900
2023-04-09T08:40:06.736Z,20.400
2023-04-09T08:41:06.876Z,22.700
2023-04-09T08:42:07.074Z,22.300
2023-04-09T08:43:07.301Z,23.000
2023-04-09T08:44:14.871Z,20.200
2023-04-09T08:45:07.023Z,21.100
2023-04-09T08:46:07.377Z,20.300
2023-04-09T08:47:06.594Z,20.300
2023-04-09T08:48:07.112Z,19.900
2023-04-09T08:49:07.212Z,21.300
2023-04-09T08:50:06.297Z,21.500
2023-04-09T08:51:06.454Z,21.900
2023-04-09T08:52:07.239Z,21.200
2023-04-09T08:53:06.391Z,19.300
2023-04-09T08:54:06.921Z,17.500
2023-04-09T08:55:07.393Z,14.900
2023-04-09T08:56:06.724Z,17.200
2023-04-09T08:57:06.979Z,17.500
2023-04-09T08:58:07.135Z,17.100
2023-04-09T08:59:06.300Z,19.700
2023-04-09T09:00:06.415Z,19.200
2023-04-09T09:01:06.751Z,17.800
2023-04-09T09:02:07.825Z,18.000
2023-04-09T09:03:06.983Z,18.200
2023-04-09T09:04:06.936Z,19.400
2023-04-09T09:05:07.598Z,18.000
2023-04-09T09:06:06.793Z,18.200
2023-04-09T09:07:06.960Z,18.200
2023-04-09T09:08:07.148Z,18.100
2023-04-09T09:09:06.514Z,18.200
2023-04-09T09:10:06.653Z,18.100
2023-04-09T09:11:06.772Z,18.900
2023-04-09T09:12:06.955Z,18.400
2023-04-09T09:13:07.139Z,19.600
2023-04-09T09:14:06.315Z,19.300
2023-04-09T09:15:06.585Z,19.000
2023-04-09T09:16:06.776Z,19.200
2023-04-09T09:17:07.186Z,17.900
2023-04-09T09:18:06.805Z,18.900
2023-04-09T09:19:10.313Z,20.000
2023-04-09T09:21:06.675Z,19.200
2023-04-09T09:22:06.898Z,20.400
2023-04-09T09:23:12.047Z,20.300
2023-04-09T09:26:06.752Z,19.700
2023-04-09T09:27:06.926Z,18.700
2023-04-09T09:28:07.041Z,18.400
2023-04-09T09:29:07.605Z,19.600
2023-04-09T09:30:06.759Z,20.300
2023-04-09T09:31:07.200Z,20.300
2023-04-09T09:32:06.390Z,20.000
2023-04-09T09:33:06.786Z,19.500
2023-04-09T09:34:06.980Z,20.800
2023-04-09T09:35:07.216Z,20.900
2023-04-09T09:36:06.564Z,21.800
2023-04-09T09:37:09.130Z,19.600
2023-04-09T09:38:06.299Z,19.800
2023-04-09T09:39:06.760Z,19.000
2023-04-09T09:40:06.920Z,17.200
2023-04-09T09:41:07.123Z,17.100
2023-04-09T09:42:07.357Z,16.900
2023-04-09T09:43:06.503Z,17.700
2023-04-09T09:44:06.719Z,19.700
2023-04-09T09:45:06.935Z,18.100
2023-04-09T09:46:07.325Z,19.600
2023-04-09T09:47:06.487Z,17.600
2023-04-09T09:48:06.839Z,18.100
2023-04-09T09:49:07.908Z,18.100
2023-04-09T09:50:07.368Z,18.000
2023-04-09T09:51:06.497Z,17.900
2023-04-09T09:52:06.671Z,16.800
2023-04-09T09:53:06.847Z,17.600
2023-04-09T09:54:07.194Z,16.900
2023-04-09T09:55:06.384Z,15.300
2023-04-09T09:56:06.610Z,15.300
2023-04-09T09:57:06.846Z,16.200
2023-04-09T09:58:07.060Z,15.500
2023-04-09T09:59:07.609Z,14.100
2023-04-09T10:00:06.734Z,14.800
2023-04-09T10:01:06.946Z,15.500
2023-04-09T10:02:07.928Z,15.300
2023-04-09T10:03:07.102Z,15.600
2023-04-09T10:04:06.442Z,14.300
2023-04-09T10:05:07.049Z,16.100
2023-04-09T10:06:07.206Z,16.100
2023-04-09T10:07:09.182Z,15.900
2023-04-09T10:11:07.172Z,14.800
2023-04-09T10:12:06.342Z,14.800
2023-04-09T10:13:06.500Z,14.400
2023-04-09T10:14:06.761Z,13.000
2023-04-09T10:15:06.971Z,13.000
2023-04-09T10:16:07.314Z,12.800
2023-04-09T10:17:06.653Z,12.400
2023-04-09T10:18:07.166Z,13.900
2023-04-09T10:19:06.583Z,15.300
2023-04-09T10:20:06.851Z,14.400
2023-04-09T10:21:07.499Z,16.300
2023-04-09T10:22:06.649Z,16.900
2023-04-09T10:23:06.894Z,14.800
2023-04-09T10:24:07.053Z,14.400
2023-04-09T10:25:07.254Z,14.500
2023-04-09T10:26:06.448Z,14.300
2023-04-09T10:27:07.145Z,14.600
2023-04-09T10:28:06.344Z,14.100
2023-04-09T10:29:06.878Z,15.100
2023-04-09T10:30:07.036Z,14.500
2023-04-09T10:31:07.265Z,13.300
2023-04-09T10:32:06.596Z,13.700
2023-04-09T10:33:06.954Z,14.200
2023-04-09T10:34:06.835Z,13.700
2023-04-09T10:35:06.636Z,13.500
2023-04-09T10:36:06.939Z,13.700
2023-04-09T10:37:07.305Z,13.800
2023-04-09T10:38:06.415Z,13.200
2023-04-09T10:39:06.855Z,14.000
2023-04-09T10:40:07.958Z,13.400
2023-04-09T10:41:06.820Z,13.500
2023-04-09T10:42:07.064Z,14.300
2023-04-09T10:43:07.196Z,16.600
2023-04-09T10:44:06.403Z,14.100
2023-04-09T10:45:06.586Z,14.600
2023-04-09T10:46:06.865Z,14.800
2023-04-09T10:47:07.545Z,15.900
2023-04-09T10:48:06.816Z,14.600
2023-04-09T10:49:07.438Z,14.000
2023-04-09T10:50:06.553Z,13.700
2023-04-09T10:51:06.739Z,14.500
2023-04-09T10:52:07.964Z,15.600
2023-04-09T10:53:06.751Z,13.400
2023-04-09T10:54:06.994Z,14.000
2023-04-09T10:55:07.106Z,13.700
2023-04-09T10:56:07.248Z,13.100
2023-04-09T10:57:06.392Z,13.400
2023-04-09T10:58:07.161Z,13.100
2023-04-09T10:59:07.457Z,13.800
2023-04-09T11:00:07.133Z,12.900
2023-04-09T11:01:06.214Z,13.100
2023-04-09T11:02:06.986Z,12.900
2023-04-09T11:03:07.569Z,13.300
2023-04-09T11:04:08.999Z,12.900
2023-04-09T11:05:06.459Z,10.900
2023-04-09T11:06:06.676Z,10.100
2023-04-09T11:07:06.872Z,12.100
2023-04-09T11:08:06.994Z,11.100
2023-04-09T11:09:07.583Z,10.400
2023-04-09T11:10:06.743Z,10.000
2023-04-09T11:11:09.356Z,10.200
2023-04-09T11:13:06.660Z,10.400
2023-04-09T11:14:06.863Z,9.200
2023-04-09T11:15:07.023Z,9.700
2023-04-09T11:16:07.569Z,9.500
2023-04-09T11:17:06.981Z,10.100
2023-04-09T11:18:07.396Z,10.800
2023-04-09T11:19:06.820Z,10.300
2023-04-09T11:20:07.020Z,10.900
2023-04-09T11:21:07.164Z,10.500
2023-04-09T11:22:06.338Z,10.600
2023-04-09T11:23:06.483Z,11.200
2023-04-09T11:24:06.701Z,10.900
2023-04-09T11:25:06.937Z,12.000
2023-04-09T11:26:07.121Z,11.100
2023-04-09T11:27:07.332Z,10.900
2023-04-09T11:28:06.450Z,11.000
2023-04-09T11:29:06.792Z,11.100
2023-04-09T11:30:06.955Z,11.600
2023-04-09T11:31:07.397Z,11.300
2023-04-09T11:32:06.852Z,10.300
2023-04-09T11:33:07.330Z,10.500
2023-04-09T11:34:06.600Z,11.900
2023-04-09T11:35:06.810Z,9.900
2023-04-09T11:36:07.292Z,11.000
2023-04-09T11:37:06.577Z,12.300
2023-04-09T11:38:06.809Z,11.100
2023-04-09T11:39:07.261Z,11.500
2023-04-09T11:40:06.401Z,10.900
2023-04-09T11:41:07.282Z,11.900
2023-04-09T11:42:06.375Z,11.900
2023-04-09T11:43:06.642Z,10.900
2023-04-09T11:44:06.864Z,11.200
2023-04-09T11:45:07.047Z,10.500
2023-04-09T11:46:07.249Z,10.900
2023-04-09T11:47:06.503Z,12.100
2023-04-09T11:48:07.178Z,11.200
2023-04-09T11:49:06.661Z,11.300
2023-04-09T11:50:06.760Z,11.400
2023-04-09T11:51:06.956Z,11.100
2023-04-09T11:52:07.118Z,10.800
2023-04-09T11:53:07.136Z,11.200
2023-04-09T11:54:06.466Z,11.100
2023-04-09T11:55:06.613Z,10.800
2023-04-09T11:56:06.881Z,10.400
2023-04-09T11:57:08.028Z,10.800
2023-04-09T11:58:07.149Z,10.800
2023-04-09T12:02:06.834Z,10.700
2023-04-09T12:03:08.207Z,10.800
2023-04-09T12:04:07.679Z,10.400
2023-04-09T12:06:07.094Z,10.100
2023-04-09T12:07:07.230Z,10.500
2023-04-09T12:08:12.380Z,10.500
2023-04-09T12:10:06.710Z,10.000
2023-04-09T12:11:09.791Z,10.500
2023-04-09T12:12:06.947Z,10.500
2023-04-09T12:13:07.287Z,10.800
2023-04-09T12:14:06.454Z,10.800
2023-04-09T12:15:06.660Z,11.100
2023-04-09T12:16:07.042Z,9.700
2023-04-09T12:17:07.533Z,9.700
2023-04-09T12:18:06.803Z,10.100
2023-04-09T12:19:07.177Z,9.900
2023-04-09T12:20:06.234Z,9.600
2023-04-09T12:21:06.441Z,9.900
2023-04-09T12:22:06.644Z,9.900
2023-04-09T12:23:06.821Z,10.400
2023-04-09T12:24:07.048Z,10.400
2023-04-09T12:25:07.287Z,10.100
2023-04-09T12:26:06.376Z,9.100
2023-04-09T12:27:06.609Z,10.200
2023-04-09T12:28:08.432Z,11.300
2023-04-09T12:29:06.592Z,10.200
2023-04-09T12:30:06.801Z,10.400
2023-04-09T12:31:07.067Z,10.400
2023-04-09T12:32:07.811Z,10.800
2023-04-09T12:33:08.312Z,10.800
2023-04-09T12:34:07.288Z,9.700
2023-04-09T12:35:06.436Z,9.700
2023-04-09T12:36:06.897Z,9.600
2023-04-09T12:37:07.112Z,10.400
2023-04-09T12:38:07.372Z,9.500
2023-04-09T12:39:06.871Z,9.800
2023-04-09T12:40:08.874Z,9.500
2023-04-09T12:41:06.983Z,9.600
2023-04-09T12:42:07.211Z,10.900
2023-04-09T12:43:06.308Z,9.800
2023-04-09T12:44:06.768Z,11.800
2023-04-09T12:45:07.093Z,10.800
2023-04-09T12:46:07.530Z,10.300
2023-04-09T12:47:06.668Z,10.100
2023-04-09T12:48:07.148Z,9.800
2023-04-09T12:49:06.295Z,9.600
2023-04-09T12:50:06.465Z,10.100
2023-04-09T12:51:06.610Z,10.800
2023-04-09T12:52:06.742Z,10.600
2023-04-09T12:53:06.920Z,10.400
2023-04-09T12:54:07.543Z,10.600
2023-04-09T12:55:06.700Z,11.500
2023-04-09T12:56:06.841Z,10.700
2023-04-09T12:57:07.013Z,10.100
2023-04-09T12:58:07.165Z,10.500
2023-04-09T12:59:06.570Z,10.400
2023-04-09T13:00:06.845Z,10.500
2023-04-09T13:01:07.025Z,9.500
2023-04-09T13:02:08.163Z,10.300
2023-04-09T13:03:06.896Z,10.400
2023-04-09T13:04:07.063Z,10.500
2023-04-09T13:05:06.693Z,10.000
2023-04-09T13:06:06.893Z,10.400